メインページ
METAR-TAF:

METAR-TAF

空港 :

インディアナポリス国際空港

インディアナポリス, インディアナ州, アメリカ合衆国

緯度: 39-43-30N, 経度: 086-16-55W, 海抜: 243m

現時点の気象観測

当レポートは36分前の00:54(UTC)に作成
北東の風 8kt
気温 22°C
湿度 53%
気圧 1021 hPa
視程: 16.1km
高度5000ftの雲はほとんどない
高度25000ftの雲は散在している

METAR: KIND 250054Z 05008KT 10SM FEW050 SCT250 22/12 A3014 RMK AO2 SLP204 T02170122

時間: 21:30 (01:30 UTC)

予報

当レポートは2時間8分前の23:22(UTC)に作成
予報は25日の 00時(UTC)から 26日の 06時(UTC)まで有効
東/北東の風 11kt
視程: 10km
高度4500ftの雲はほとんどない
高度25000ftの雲は散在している
25日の 0100時(UTC)から
の風 8kt
視程: 10km
高度25000ftの雲は散在している
25日の 1900時(UTC)から
東/南東の風 9kt
視程: 10km
高度20000ftの千切れ雲あり

TAF: KIND 242322Z 2500/2606 07011KT P6SM FEW045 SCT250 FM250100 08008KT P6SM SCT250 FM251900 11009KT P6SM BKN200

4,000以上の空港の気象観測と天気予報(METAR報とTAF報)

利用可能な観測所は地図上に黄色い丸と赤い丸で示す。

丸の上にカーソルを重ねると観測所名を参照できる。

次にクリックすると気象観測と天気予報を参照できる。

マップの切り替え:黒色「×」印の緑ボタンをクリックして拡大、「-」印の緑ボタンをクリックして縮小、緑色の三角印をクリックして隣りの地図に切り替え


METAR-TAF: